sensor_id;sensor_type;location;lat;lon;timestamp;pressure;altitude;pressure_sealevel;temperature;humidity
20027;BME280;10174;42.688;23.344;2023-08-24T00:01:51;95429.09;;;21.55;80.94
20027;BME280;10174;42.688;23.344;2023-08-24T00:04:16;95420.28;;;21.49;81.16
20027;BME280;10174;42.688;23.344;2023-08-24T00:06:42;95428.50;;;21.40;81.78
20027;BME280;10174;42.688;23.344;2023-08-24T00:09:07;95426.75;;;21.35;82.19
20027;BME280;10174;42.688;23.344;2023-08-24T00:11:33;95377.06;;;21.12;82.68
20027;BME280;10174;42.688;23.344;2023-08-24T00:13:59;95430.91;;;21.50;82.70
20027;BME280;10174;42.688;23.344;2023-08-24T00:16:24;95422.09;;;21.36;82.30
20027;BME280;10174;42.688;23.344;2023-08-24T00:18:49;95404.06;;;21.14;83.31
20027;BME280;10174;42.688;23.344;2023-08-24T00:21:15;95397.06;;;20.95;83.60
20027;BME280;10174;42.688;23.344;2023-08-24T00:23:42;95385.63;;;21.02;83.00
20027;BME280;10174;42.688;23.344;2023-08-24T00:26:08;95411.06;;;21.24;83.02
20027;BME280;10174;42.688;23.344;2023-08-24T00:28:34;95322.53;;;20.65;82.57
20027;BME280;10174;42.688;23.344;2023-08-24T00:31:00;95348.81;;;20.61;83.45
20027;BME280;10174;42.688;23.344;2023-08-24T00:33:26;95423.84;;;21.02;84.93
20027;BME280;10174;42.688;23.344;2023-08-24T00:35:51;95422.84;;;21.15;84.00
20027;BME280;10174;42.688;23.344;2023-08-24T00:38:16;95427.34;;;21.11;83.99
20027;BME280;10174;42.688;23.344;2023-08-24T00:40:42;95402.00;;;21.02;84.14
20027;BME280;10174;42.688;23.344;2023-08-24T00:43:09;95399.38;;;21.14;84.20
20027;BME280;10174;42.688;23.344;2023-08-24T00:45:34;95412.31;;;21.35;83.54
20027;BME280;10174;42.688;23.344;2023-08-24T00:48:01;95424.06;;;21.27;83.71
20027;BME280;10174;42.688;23.344;2023-08-24T00:50:27;95418.34;;;21.20;83.78
20027;BME280;10174;42.688;23.344;2023-08-24T00:52:53;95420.97;;;21.07;84.44
20027;BME280;10174;42.688;23.344;2023-08-24T00:55:20;95416.44;;;21.11;84.80
20027;BME280;10174;42.688;23.344;2023-08-24T00:57:45;95432.47;;;21.22;84.55
20027;BME280;10174;42.688;23.344;2023-08-24T01:00:12;95419.25;;;21.24;84.25
20027;BME280;10174;42.688;23.344;2023-08-24T01:02:39;95421.53;;;21.22;84.04
20027;BME280;10174;42.688;23.344;2023-08-24T01:05:04;95426.56;;;21.11;84.16
20027;BME280;10174;42.688;23.344;2023-08-24T01:07:32;95402.38;;;20.92;84.29
20027;BME280;10174;42.688;23.344;2023-08-24T01:09:59;95333.19;;;20.40;85.27
20027;BME280;10174;42.688;23.344;2023-08-24T01:15:29;95422.25;;;21.01;85.57
20027;BME280;10174;42.688;23.344;2023-08-24T01:18:01;95414.59;;;20.86;85.56
20027;BME280;10174;42.688;23.344;2023-08-24T01:20:30;95332.91;;;20.16;86.58
20027;BME280;10174;42.688;23.344;2023-08-24T01:23:00;95425.72;;;20.72;87.24
20027;BME280;10174;42.688;23.344;2023-08-24T01:27:54;95417.03;;;20.61;87.60
20027;BME280;10174;42.688;23.344;2023-08-24T01:30:20;95422.50;;;20.78;87.06
20027;BME280;10174;42.688;23.344;2023-08-24T01:32:45;95427.78;;;20.84;86.64
20027;BME280;10174;42.688;23.344;2023-08-24T01:35:11;95414.97;;;20.75;85.96
20027;BME280;10174;42.688;23.344;2023-08-24T01:37:36;95426.84;;;20.62;86.59
20027;BME280;10174;42.688;23.344;2023-08-24T01:42:59;95421.72;;;20.43;87.78
20027;BME280;10174;42.688;23.344;2023-08-24T01:45:29;95424.47;;;20.43;88.22
20027;BME280;10174;42.688;23.344;2023-08-24T01:47:56;95436.47;;;20.51;88.62
20027;BME280;10174;42.688;23.344;2023-08-24T01:50:22;95357.00;;;19.96;87.81
20027;BME280;10174;42.688;23.344;2023-08-24T01:52:49;95417.25;;;20.38;88.38
20027;BME280;10174;42.688;23.344;2023-08-24T01:55:18;95427.34;;;20.46;87.93
20027;BME280;10174;42.688;23.344;2023-08-24T01:57:44;95433.47;;;20.43;88.20
20027;BME280;10174;42.688;23.344;2023-08-24T02:00:09;95336.78;;;19.80;88.61
20027;BME280;10174;42.688;23.344;2023-08-24T02:02:35;95357.47;;;19.89;89.24
20027;BME280;10174;42.688;23.344;2023-08-24T02:05:01;95437.63;;;20.50;88.77
20027;BME280;10174;42.688;23.344;2023-08-24T02:07:27;95432.31;;;20.53;88.45
20027;BME280;10174;42.688;23.344;2023-08-24T02:09:53;95415.16;;;20.35;88.30
20027;BME280;10174;42.688;23.344;2023-08-24T02:12:18;95421.13;;;20.20;89.25
20027;BME280;10174;42.688;23.344;2023-08-24T02:14:43;95409.59;;;20.05;89.88
20027;BME280;10174;42.688;23.344;2023-08-24T02:17:09;95422.41;;;20.14;90.27
20027;BME280;10174;42.688;23.344;2023-08-24T02:19:34;95422.72;;;20.03;90.28
20027;BME280;10174;42.688;23.344;2023-08-24T02:22:00;95430.59;;;20.05;90.60
20027;BME280;10174;42.688;23.344;2023-08-24T02:24:25;95423.69;;;19.90;91.11
20027;BME280;10174;42.688;23.344;2023-08-24T02:26:50;95447.75;;;20.05;91.61
20027;BME280;10174;42.688;23.344;2023-08-24T02:29:16;95423.06;;;19.93;91.14
20027;BME280;10174;42.688;23.344;2023-08-24T02:31:41;95419.66;;;19.79;91.71
20027;BME280;10174;42.688;23.344;2023-08-24T02:34:06;95424.63;;;19.76;92.39
20027;BME280;10174;42.688;23.344;2023-08-24T02:36:32;95443.41;;;19.78;93.10
20027;BME280;10174;42.688;23.344;2023-08-24T02:38:59;95419.97;;;19.77;93.18
20027;BME280;10174;42.688;23.344;2023-08-24T02:41:25;95404.25;;;19.65;92.79
20027;BME280;10174;42.688;23.344;2023-08-24T02:43:51;95417.44;;;19.81;92.58
20027;BME280;10174;42.688;23.344;2023-08-24T02:46:16;95405.38;;;19.73;92.54
20027;BME280;10174;42.688;23.344;2023-08-24T02:48:43;95416.00;;;19.92;92.78
20027;BME280;10174;42.688;23.344;2023-08-24T02:51:09;95411.50;;;19.96;92.25
20027;BME280;10174;42.688;23.344;2023-08-24T02:53:35;95419.19;;;19.94;92.07
20027;BME280;10174;42.688;23.344;2023-08-24T02:56:00;95407.34;;;19.90;92.37
20027;BME280;10174;42.688;23.344;2023-08-24T02:58:26;95413.91;;;19.98;91.75
20027;BME280;10174;42.688;23.344;2023-08-24T03:00:52;95408.94;;;19.91;91.83
20027;BME280;10174;42.688;23.344;2023-08-24T03:03:18;95428.81;;;20.00;91.81
20027;BME280;10174;42.688;23.344;2023-08-24T03:05:59;95417.09;;;19.91;92.13
20027;BME280;10174;42.688;23.344;2023-08-24T03:08:25;95429.94;;;20.08;91.60
20027;BME280;10174;42.688;23.344;2023-08-24T03:10:51;95431.88;;;20.16;90.70
20027;BME280;10174;42.688;23.344;2023-08-24T03:13:16;95427.69;;;20.27;89.11
20027;BME280;10174;42.688;23.344;2023-08-24T03:15:42;95426.91;;;20.27;88.40
20027;BME280;10174;42.688;23.344;2023-08-24T03:18:09;95431.53;;;20.35;87.54
20027;BME280;10174;42.688;23.344;2023-08-24T03:20:35;95444.84;;;20.45;86.82
20027;BME280;10174;42.688;23.344;2023-08-24T03:23:00;95443.72;;;20.46;88.45
20027;BME280;10174;42.688;23.344;2023-08-24T03:25:26;95434.06;;;20.49;89.04
20027;BME280;10174;42.688;23.344;2023-08-24T03:27:51;95444.69;;;20.33;87.69
20027;BME280;10174;42.688;23.344;2023-08-24T03:30:17;95427.88;;;20.31;86.51
20027;BME280;10174;42.688;23.344;2023-08-24T03:32:42;95453.81;;;20.55;86.77
20027;BME280;10174;42.688;23.344;2023-08-24T03:35:08;95394.81;;;20.06;86.32
20027;BME280;10174;42.688;23.344;2023-08-24T03:37:33;95461.53;;;20.35;87.32
20027;BME280;10174;42.688;23.344;2023-08-24T03:39:59;95458.66;;;20.23;88.05
20027;BME280;10174;42.688;23.344;2023-08-24T03:42:24;95472.47;;;20.18;88.91
20027;BME280;10174;42.688;23.344;2023-08-24T03:44:50;95480.81;;;20.13;89.60
20027;BME280;10174;42.688;23.344;2023-08-24T03:47:15;95355.00;;;19.35;89.20
20027;BME280;10174;42.688;23.344;2023-08-24T03:49:44;95475.34;;;20.13;89.79
20027;BME280;10174;42.688;23.344;2023-08-24T03:52:09;95480.97;;;20.16;89.60
20027;BME280;10174;42.688;23.344;2023-08-24T03:54:35;95472.78;;;20.25;89.66
20027;BME280;10174;42.688;23.344;2023-08-24T03:57:01;95460.75;;;20.17;89.51
20027;BME280;10174;42.688;23.344;2023-08-24T03:59:27;95396.09;;;19.65;89.54
20027;BME280;10174;42.688;23.344;2023-08-24T04:01:52;95480.47;;;20.05;90.66
20027;BME280;10174;42.688;23.344;2023-08-24T04:04:18;95470.53;;;20.09;90.68
20027;BME280;10174;42.688;23.344;2023-08-24T04:06:43;95491.22;;;20.10;90.13
20027;BME280;10174;42.688;23.344;2023-08-24T04:09:09;95482.06;;;20.06;90.56
20027;BME280;10174;42.688;23.344;2023-08-24T04:11:34;95436.03;;;19.87;89.42
20027;BME280;10174;42.688;23.344;2023-08-24T04:14:00;95479.19;;;20.11;90.06
20027;BME280;10174;42.688;23.344;2023-08-24T04:16:25;95480.78;;;20.21;90.35
20027;BME280;10174;42.688;23.344;2023-08-24T04:18:50;95460.13;;;20.11;89.92
20027;BME280;10174;42.688;23.344;2023-08-24T04:21:16;95397.22;;;19.73;89.69
20027;BME280;10174;42.688;23.344;2023-08-24T04:23:41;95471.50;;;20.14;89.99
20027;BME280;10174;42.688;23.344;2023-08-24T04:26:11;95465.72;;;20.15;90.29
20027;BME280;10174;42.688;23.344;2023-08-24T04:28:36;95477.25;;;20.03;90.97
20027;BME280;10174;42.688;23.344;2023-08-24T04:31:02;95486.56;;;20.02;91.19
20027;BME280;10174;42.688;23.344;2023-08-24T04:33:28;95402.13;;;19.45;91.14
20027;BME280;10174;42.688;23.344;2023-08-24T04:35:53;95395.25;;;19.47;91.63
20027;BME280;10174;42.688;23.344;2023-08-24T04:38:19;95489.28;;;20.11;91.20
20027;BME280;10174;42.688;23.344;2023-08-24T04:40:51;95492.50;;;20.13;90.46
20027;BME280;10174;42.688;23.344;2023-08-24T04:43:18;95486.88;;;20.18;89.68
20027;BME280;10174;42.688;23.344;2023-08-24T04:45:46;95470.22;;;20.20;90.08
20027;BME280;10174;42.688;23.344;2023-08-24T04:48:12;95460.25;;;20.15;90.20
20027;BME280;10174;42.688;23.344;2023-08-24T04:50:37;95477.59;;;20.37;89.95
20027;BME280;10174;42.688;23.344;2023-08-24T04:53:03;95474.06;;;20.36;89.87
20027;BME280;10174;42.688;23.344;2023-08-24T04:55:28;95466.38;;;20.21;90.38
20027;BME280;10174;42.688;23.344;2023-08-24T04:57:53;95471.50;;;20.31;90.79
20027;BME280;10174;42.688;23.344;2023-08-24T05:00:19;95457.53;;;20.24;90.16
20027;BME280;10174;42.688;23.344;2023-08-24T05:02:44;95436.84;;;20.23;89.82
20027;BME280;10174;42.688;23.344;2023-08-24T05:05:10;95372.69;;;19.82;89.75
20027;BME280;10174;42.688;23.344;2023-08-24T05:07:37;95398.03;;;20.08;90.57
20027;BME280;10174;42.688;23.344;2023-08-24T05:10:03;95496.84;;;20.67;91.90
20027;BME280;10174;42.688;23.344;2023-08-24T05:12:29;95494.28;;;20.70;91.11
20027;BME280;10174;42.688;23.344;2023-08-24T05:14:54;95497.50;;;20.72;90.25
20027;BME280;10174;42.688;23.344;2023-08-24T05:17:20;95505.19;;;20.88;91.61
20027;BME280;10174;42.688;23.344;2023-08-24T05:19:51;95398.66;;;20.40;88.98
20027;BME280;10174;42.688;23.344;2023-08-24T05:22:17;95499.19;;;21.12;87.67
20027;BME280;10174;42.688;23.344;2023-08-24T05:24:42;95496.91;;;21.14;86.51
20027;BME280;10174;42.688;23.344;2023-08-24T05:27:08;95506.50;;;21.29;86.73
20027;BME280;10174;42.688;23.344;2023-08-24T05:29:33;95452.66;;;20.91;85.26
20027;BME280;10174;42.688;23.344;2023-08-24T05:31:59;95502.16;;;21.28;84.99
20027;BME280;10174;42.688;23.344;2023-08-24T05:34:24;95430.69;;;20.78;83.56
20027;BME280;10174;42.688;23.344;2023-08-24T05:36:50;95453.56;;;21.04;84.52
20027;BME280;10174;42.688;23.344;2023-08-24T05:39:16;95490.25;;;21.32;84.10
20027;BME280;10174;42.688;23.344;2023-08-24T05:41:41;95489.72;;;21.48;81.57
20027;BME280;10174;42.688;23.344;2023-08-24T05:44:07;95439.25;;;21.15;80.74
20027;BME280;10174;42.688;23.344;2023-08-24T05:46:32;95495.50;;;21.55;79.96
20027;BME280;10174;42.688;23.344;2023-08-24T05:48:58;95512.22;;;21.53;80.83
20027;BME280;10174;42.688;23.344;2023-08-24T05:51:27;95502.84;;;21.63;81.93
20027;BME280;10174;42.688;23.344;2023-08-24T05:53:53;95520.91;;;21.85;80.15
20027;BME280;10174;42.688;23.344;2023-08-24T05:56:23;95525.31;;;21.99;79.97
20027;BME280;10174;42.688;23.344;2023-08-24T05:58:49;95517.56;;;22.10;79.83
20027;BME280;10174;42.688;23.344;2023-08-24T06:01:14;95531.75;;;22.24;77.36
20027;BME280;10174;42.688;23.344;2023-08-24T06:03:40;95508.69;;;22.34;76.29
20027;BME280;10174;42.688;23.344;2023-08-24T06:06:05;95508.56;;;22.51;76.05
20027;BME280;10174;42.688;23.344;2023-08-24T06:08:31;95495.06;;;22.46;74.75
20027;BME280;10174;42.688;23.344;2023-08-24T06:10:57;95510.44;;;22.59;76.19
20027;BME280;10174;42.688;23.344;2023-08-24T06:13:23;95519.34;;;22.69;75.22
20027;BME280;10174;42.688;23.344;2023-08-24T06:15:49;95408.06;;;22.39;74.37
20027;BME280;10174;42.688;23.344;2023-08-24T06:18:14;95515.13;;;22.92;72.52
20027;BME280;10174;42.688;23.344;2023-08-24T06:20:40;95508.06;;;23.04;72.33
20027;BME280;10174;42.688;23.344;2023-08-24T06:23:06;95511.81;;;23.33;71.53
20027;BME280;10174;42.688;23.344;2023-08-24T06:25:33;95447.41;;;23.14;71.21
20027;BME280;10174;42.688;23.344;2023-08-24T06:27:59;95517.31;;;23.57;70.75
20027;BME280;10174;42.688;23.344;2023-08-24T06:30:25;95518.44;;;23.32;71.63
20027;BME280;10174;42.688;23.344;2023-08-24T06:32:50;95525.09;;;23.43;72.34
20027;BME280;10174;42.688;23.344;2023-08-24T06:35:16;95506.34;;;23.70;70.06
20027;BME280;10174;42.688;23.344;2023-08-24T06:37:42;95510.72;;;23.83;69.18
20027;BME280;10174;42.688;23.344;2023-08-24T06:40:08;95521.56;;;23.79;68.92
20027;BME280;10174;42.688;23.344;2023-08-24T06:42:34;95484.56;;;23.73;68.20
20027;BME280;10174;42.688;23.344;2023-08-24T06:44:59;95491.97;;;23.85;67.81
20027;BME280;10174;42.688;23.344;2023-08-24T06:47:25;95442.41;;;23.53;68.42
20027;BME280;10174;42.688;23.344;2023-08-24T06:49:50;95526.72;;;24.06;68.42
20027;BME280;10174;42.688;23.344;2023-08-24T06:52:16;95504.53;;;24.11;67.66
20027;BME280;10174;42.688;23.344;2023-08-24T06:54:41;95515.13;;;24.25;67.81
20027;BME280;10174;42.688;23.344;2023-08-24T06:57:07;95510.97;;;23.90;68.74
20027;BME280;10174;42.688;23.344;2023-08-24T06:59:32;95510.25;;;24.06;68.79
20027;BME280;10174;42.688;23.344;2023-08-24T07:01:58;95428.88;;;23.73;68.15
20027;BME280;10174;42.688;23.344;2023-08-24T07:04:23;95508.25;;;24.43;67.37
20027;BME280;10174;42.688;23.344;2023-08-24T07:06:48;95507.75;;;24.53;67.76
20027;BME280;10174;42.688;23.344;2023-08-24T07:09:14;95491.38;;;24.57;67.31
20027;BME280;10174;42.688;23.344;2023-08-24T07:11:40;95486.38;;;24.47;66.14
20027;BME280;10174;42.688;23.344;2023-08-24T07:14:06;95489.84;;;24.72;65.71
20027;BME280;10174;42.688;23.344;2023-08-24T07:16:31;95503.31;;;25.05;66.41
20027;BME280;10174;42.688;23.344;2023-08-24T07:18:57;95501.78;;;25.36;65.22
20027;BME280;10174;42.688;23.344;2023-08-24T07:21:22;95511.03;;;25.60;63.58
20027;BME280;10174;42.688;23.344;2023-08-24T07:23:48;95498.75;;;25.89;61.25
20027;BME280;10174;42.688;23.344;2023-08-24T07:26:13;95494.34;;;26.20;60.00
20027;BME280;10174;42.688;23.344;2023-08-24T07:28:38;95502.25;;;26.22;58.83
20027;BME280;10174;42.688;23.344;2023-08-24T07:31:11;95407.16;;;25.37;59.86
20027;BME280;10174;42.688;23.344;2023-08-24T07:33:40;95415.53;;;25.76;60.49
20027;BME280;10174;42.688;23.344;2023-08-24T07:36:06;95493.72;;;26.27;59.90
20027;BME280;10174;42.688;23.344;2023-08-24T07:38:32;95497.06;;;26.36;59.54
20027;BME280;10174;42.688;23.344;2023-08-24T07:40:58;95493.00;;;26.30;59.15
20027;BME280;10174;42.688;23.344;2023-08-24T07:43:24;95419.75;;;26.06;57.88
20027;BME280;10174;42.688;23.344;2023-08-24T07:45:49;95496.19;;;26.32;58.47
20027;BME280;10174;42.688;23.344;2023-08-24T07:48:15;95498.75;;;26.41;58.99
20027;BME280;10174;42.688;23.344;2023-08-24T07:50:40;95491.72;;;26.63;58.15
20027;BME280;10174;42.688;23.344;2023-08-24T07:53:06;95491.75;;;26.82;56.97
20027;BME280;10174;42.688;23.344;2023-08-24T07:55:31;95491.59;;;26.75;57.58
20027;BME280;10174;42.688;23.344;2023-08-24T07:57:58;95485.94;;;26.88;57.08
20027;BME280;10174;42.688;23.344;2023-08-24T08:00:23;95491.16;;;26.93;57.16
20027;BME280;10174;42.688;23.344;2023-08-24T08:02:50;95464.94;;;27.26;56.18
20027;BME280;10174;42.688;23.344;2023-08-24T08:05:17;95481.97;;;27.51;55.08
20027;BME280;10174;42.688;23.344;2023-08-24T08:07:42;95432.50;;;27.62;54.38
20027;BME280;10174;42.688;23.344;2023-08-24T08:10:08;95472.69;;;28.13;53.91
20027;BME280;10174;42.688;23.344;2023-08-24T08:12:35;95478.59;;;28.41;52.14
20027;BME280;10174;42.688;23.344;2023-08-24T08:15:02;95478.19;;;29.04;50.46
20027;BME280;10174;42.688;23.344;2023-08-24T08:17:27;95469.03;;;29.34;49.87
20027;BME280;10174;42.688;23.344;2023-08-24T08:19:59;95475.31;;;29.79;48.60
20027;BME280;10174;42.688;23.344;2023-08-24T08:22:24;95482.84;;;30.37;47.18
20027;BME280;10174;42.688;23.344;2023-08-24T08:24:51;95462.31;;;30.42;45.50
20027;BME280;10174;42.688;23.344;2023-08-24T08:27:16;95462.63;;;30.33;45.98
20027;BME280;10174;42.688;23.344;2023-08-24T08:29:41;95432.13;;;30.26;45.24
20027;BME280;10174;42.688;23.344;2023-08-24T08:32:08;95473.34;;;31.44;44.47
20027;BME280;10174;42.688;23.344;2023-08-24T08:34:33;95470.53;;;31.37;44.23
20027;BME280;10174;42.688;23.344;2023-08-24T08:36:59;95407.91;;;31.51;41.54
20027;BME280;10174;42.688;23.344;2023-08-24T08:39:24;95447.16;;;32.03;42.47
20027;BME280;10174;42.688;23.344;2023-08-24T08:41:49;95455.50;;;31.82;42.11
20027;BME280;10174;42.688;23.344;2023-08-24T08:44:15;95459.88;;;31.75;41.95
20027;BME280;10174;42.688;23.344;2023-08-24T08:46:44;95457.84;;;32.30;40.84
20027;BME280;10174;42.688;23.344;2023-08-24T08:49:11;95431.97;;;32.40;39.65
20027;BME280;10174;42.688;23.344;2023-08-24T08:51:41;95450.25;;;34.28;37.36
20027;BME280;10174;42.688;23.344;2023-08-24T08:54:06;95448.56;;;35.03;35.52
20027;BME280;10174;42.688;23.344;2023-08-24T08:56:32;95448.38;;;36.99;32.99
20027;BME280;10174;42.688;23.344;2023-08-24T08:58:59;95430.91;;;38.98;29.43
20027;BME280;10174;42.688;23.344;2023-08-24T09:01:26;95388.28;;;39.04;28.95
20027;BME280;10174;42.688;23.344;2023-08-24T09:03:53;95426.56;;;38.97;28.98
20027;BME280;10174;42.688;23.344;2023-08-24T09:06:20;95373.41;;;38.77;28.71
20027;BME280;10174;42.688;23.344;2023-08-24T09:08:47;95401.19;;;39.65;28.13
20027;BME280;10174;42.688;23.344;2023-08-24T09:11:12;95421.31;;;39.64;27.84
20027;BME280;10174;42.688;23.344;2023-08-24T09:13:38;95417.94;;;39.17;28.53
20027;BME280;10174;42.688;23.344;2023-08-24T09:16:05;95403.41;;;39.83;27.38
20027;BME280;10174;42.688;23.344;2023-08-24T09:18:38;95403.91;;;39.56;27.72
20027;BME280;10174;42.688;23.344;2023-08-24T09:21:11;95397.91;;;38.90;28.46
20027;BME280;10174;42.688;23.344;2023-08-24T09:23:38;95397.25;;;39.50;27.93
20027;BME280;10174;42.688;23.344;2023-08-24T09:26:08;95392.75;;;39.78;27.69
20027;BME280;10174;42.688;23.344;2023-08-24T09:28:33;95389.94;;;40.35;27.41
20027;BME280;10174;42.688;23.344;2023-08-24T09:31:00;95378.94;;;40.94;26.47
20027;BME280;10174;42.688;23.344;2023-08-24T09:33:26;95364.69;;;40.67;26.57
20027;BME280;10174;42.688;23.344;2023-08-24T09:35:53;95320.88;;;40.88;25.60
20027;BME280;10174;42.688;23.344;2023-08-24T09:38:27;95373.72;;;40.84;26.60
20027;BME280;10174;42.688;23.344;2023-08-24T09:40:54;95368.31;;;40.99;25.50
20027;BME280;10174;42.688;23.344;2023-08-24T09:43:21;95339.94;;;41.24;25.15
20027;BME280;10174;42.688;23.344;2023-08-24T09:45:51;95365.88;;;41.10;25.68
20027;BME280;10174;42.688;23.344;2023-08-24T09:48:17;95362.88;;;40.73;25.54
20027;BME280;10174;42.688;23.344;2023-08-24T09:50:48;95361.88;;;40.89;25.44
20027;BME280;10174;42.688;23.344;2023-08-24T09:53:17;95343.78;;;40.01;25.64
20027;BME280;10174;42.688;23.344;2023-08-24T09:55:59;95360.81;;;39.72;26.94
20027;BME280;10174;42.688;23.344;2023-08-24T09:58:25;95349.28;;;41.12;24.47
20027;BME280;10174;42.688;23.344;2023-08-24T10:00:51;95356.09;;;39.69;26.38
20027;BME280;10174;42.688;23.344;2023-08-24T10:03:26;95335.88;;;39.74;26.14
20027;BME280;10174;42.688;23.344;2023-08-24T10:05:53;95307.81;;;40.18;25.43
20027;BME280;10174;42.688;23.344;2023-08-24T10:08:21;95346.88;;;40.70;25.22
20027;BME280;10174;42.688;23.344;2023-08-24T10:10:53;95352.25;;;40.33;25.26
20027;BME280;10174;42.688;23.344;2023-08-24T10:13:26;95304.13;;;40.31;24.42
20027;BME280;10174;42.688;23.344;2023-08-24T10:15:53;95307.53;;;40.03;25.23
20027;BME280;10174;42.688;23.344;2023-08-24T10:18:19;95330.59;;;40.65;25.14
20027;BME280;10174;42.688;23.344;2023-08-24T10:20:45;95309.66;;;41.38;23.90
20027;BME280;10174;42.688;23.344;2023-08-24T10:23:12;95329.25;;;41.10;24.77
20027;BME280;10174;42.688;23.344;2023-08-24T10:25:39;95344.91;;;41.61;23.76
20027;BME280;10174;42.688;23.344;2023-08-24T10:28:07;95318.78;;;41.97;22.85
20027;BME280;10174;42.688;23.344;2023-08-24T10:30:35;95333.56;;;40.39;24.38
20027;BME280;10174;42.688;23.344;2023-08-24T10:33:01;95316.34;;;39.58;24.84
20027;BME280;10174;42.688;23.344;2023-08-24T10:35:27;95320.47;;;37.95;26.71
20027;BME280;10174;42.688;23.344;2023-08-24T10:37:53;95324.63;;;36.55;29.05
20027;BME280;10174;42.688;23.344;2023-08-24T10:40:36;95323.03;;;36.54;28.92
20027;BME280;10174;42.688;23.344;2023-08-24T10:43:03;95320.31;;;35.90;30.10
20027;BME280;10174;42.688;23.344;2023-08-24T10:48:19;95317.47;;;34.72;31.87
20027;BME280;10174;42.688;23.344;2023-08-24T10:53:39;95262.78;;;33.09;33.72
20027;BME280;10174;42.688;23.344;2023-08-24T10:56:15;95273.25;;;32.91;34.86
20027;BME280;10174;42.688;23.344;2023-08-24T10:58:42;95217.41;;;32.14;36.71
20027;BME280;10174;42.688;23.344;2023-08-24T11:01:14;95302.28;;;32.23;38.61
20027;BME280;10174;42.688;23.344;2023-08-24T11:03:41;95280.66;;;31.64;38.22
20027;BME280;10174;42.688;23.344;2023-08-24T11:06:21;95336.97;;;31.39;39.20
20027;BME280;10174;42.688;23.344;2023-08-24T11:08:49;95317.56;;;31.06;40.62
20027;BME280;10174;42.688;23.344;2023-08-24T11:11:24;95318.72;;;31.38;40.53
20027;BME280;10174;42.688;23.344;2023-08-24T11:16:44;95326.25;;;31.73;39.75
20027;BME280;10174;42.688;23.344;2023-08-24T11:19:13;95321.38;;;31.99;39.66
20027;BME280;10174;42.688;23.344;2023-08-24T11:21:40;95313.81;;;32.03;38.96
20027;BME280;10174;42.688;23.344;2023-08-24T11:24:06;95302.28;;;32.08;38.96
20027;BME280;10174;42.688;23.344;2023-08-24T11:26:33;95311.84;;;32.07;39.86
20027;BME280;10174;42.688;23.344;2023-08-24T11:28:59;95318.97;;;32.05;39.56
20027;BME280;10174;42.688;23.344;2023-08-24T11:31:24;95311.94;;;31.71;39.68
20027;BME280;10174;42.688;23.344;2023-08-24T11:33:54;95323.06;;;31.42;39.87
20027;BME280;10174;42.688;23.344;2023-08-24T11:36:23;95312.03;;;31.06;40.84
20027;BME280;10174;42.688;23.344;2023-08-24T11:38:55;95311.94;;;30.63;41.62
20027;BME280;10174;42.688;23.344;2023-08-24T11:41:21;95327.78;;;30.59;43.03
20027;BME280;10174;42.688;23.344;2023-08-24T11:43:48;95330.13;;;30.46;44.06
20027;BME280;10174;42.688;23.344;2023-08-24T11:46:19;95311.03;;;30.23;45.09
20027;BME280;10174;42.688;23.344;2023-08-24T11:48:45;95324.09;;;30.19;46.17
20027;BME280;10174;42.688;23.344;2023-08-24T11:51:12;95320.50;;;30.15;46.38
20027;BME280;10174;42.688;23.344;2023-08-24T11:53:42;95321.28;;;30.12;46.77
20027;BME280;10174;42.688;23.344;2023-08-24T11:56:09;95309.19;;;29.68;47.22
20027;BME280;10174;42.688;23.344;2023-08-24T11:58:40;95319.47;;;29.67;47.77
20027;BME280;10174;42.688;23.344;2023-08-24T12:01:06;95311.13;;;29.57;47.98
20027;BME280;10174;42.688;23.344;2023-08-24T12:03:33;95315.34;;;29.40;48.05
20027;BME280;10174;42.688;23.344;2023-08-24T12:06:02;95286.72;;;29.18;48.40
20027;BME280;10174;42.688;23.344;2023-08-24T12:08:30;95208.88;;;28.60;49.16
20027;BME280;10174;42.688;23.344;2023-08-24T12:10:55;95284.28;;;29.09;48.41
20027;BME280;10174;42.688;23.344;2023-08-24T12:13:22;95262.91;;;28.99;48.41
20027;BME280;10174;42.688;23.344;2023-08-24T12:15:47;95282.72;;;29.08;48.58
20027;BME280;10174;42.688;23.344;2023-08-24T12:18:15;95239.03;;;28.76;48.58
20027;BME280;10174;42.688;23.344;2023-08-24T12:20:41;95271.19;;;28.99;48.79
20027;BME280;10174;42.688;23.344;2023-08-24T12:23:07;95290.63;;;29.13;47.81
20027;BME280;10174;42.688;23.344;2023-08-24T12:25:37;95275.19;;;29.05;48.32
20027;BME280;10174;42.688;23.344;2023-08-24T12:28:15;95282.25;;;29.02;47.72
20027;BME280;10174;42.688;23.344;2023-08-24T12:30:53;95250.09;;;28.79;48.32
20027;BME280;10174;42.688;23.344;2023-08-24T12:33:26;95220.84;;;28.71;48.00
20027;BME280;10174;42.688;23.344;2023-08-24T12:35:52;95284.28;;;29.09;46.78
20027;BME280;10174;42.688;23.344;2023-08-24T12:38:19;95214.56;;;28.78;46.99
20027;BME280;10174;42.688;23.344;2023-08-24T12:40:45;95265.19;;;29.45;45.17
20027;BME280;10174;42.688;23.344;2023-08-24T12:43:10;95209.69;;;29.16;45.08
20027;BME280;10174;42.688;23.344;2023-08-24T12:45:36;95260.81;;;29.40;45.15
20027;BME280;10174;42.688;23.344;2023-08-24T12:48:03;95248.97;;;29.40;43.97
20027;BME280;10174;42.688;23.344;2023-08-24T12:50:29;95296.66;;;29.85;43.76
20027;BME280;10174;42.688;23.344;2023-08-24T12:52:54;95310.13;;;29.97;43.41
20027;BME280;10174;42.688;23.344;2023-08-24T12:55:24;95298.28;;;29.97;42.94
20027;BME280;10174;42.688;23.344;2023-08-24T12:57:50;95308.19;;;30.01;45.00
20027;BME280;10174;42.688;23.344;2023-08-24T13:00:15;95288.59;;;29.58;47.77
20027;BME280;10174;42.688;23.344;2023-08-24T13:02:41;95302.19;;;29.22;49.98
20027;BME280;10174;42.688;23.344;2023-08-24T13:05:06;95321.88;;;29.17;51.04